Time;durP1;ratioP1;P1;durP2;ratioP2;P2;SDS_P1;SDS_P2;PMS_P1;PMS_P2;Temp;Humidity;BMP_temperature;BMP_pressure;BME280_temperature;BME280_humidity;BME280_pressure;Samples;Min_cycle;Max_cycle;Signal;HPM_P1;HPM_P2
2022/07/18 00:00:32;;;;;;;1.45;0.90;;;19.80;76.70;;;20.36;62.07;101759.94;5171662;28;20529;-84
2022/07/18 00:03:06;;;;;;;2.03;0.80;;;19.80;76.70;;;20.35;61.51;101759.94;5173368;28;20423;-86
2022/07/18 00:05:38;;;;;;;0.68;0.60;;;19.80;76.50;;;20.33;60.85;101763.44;5172923;28;20538;-83
2022/07/18 00:08:10;;;;;;;1.00;0.70;;;19.80;75.80;;;20.30;61.05;101762.53;5172668;28;20069;-84
2022/07/18 00:10:43;;;;;;;1.67;0.70;;;19.70;76.00;;;20.27;60.69;101763.38;5172377;28;20061;-85
2022/07/18 00:13:15;;;;;;;1.25;1.00;;;19.70;75.80;;;20.23;59.94;101764.22;5190040;28;20431;-86
2022/07/18 00:15:47;;;;;;;1.95;0.93;;;19.70;75.10;;;20.20;60.41;101766.84;5172714;28;20412;-85
2022/07/18 00:18:20;;;;;;;1.73;0.70;;;19.70;75.50;;;20.13;60.90;101770.28;5172408;28;20053;-83
2022/07/18 00:20:52;;;;;;;0.80;0.80;;;19.60;75.90;;;20.06;61.63;101771.97;5190104;28;20045;-83
2022/07/18 00:23:24;;;;;;;1.83;0.82;;;19.50;76.60;;;20.00;62.02;101763.97;5189759;28;20042;-84
2022/07/18 00:25:57;;;;;;;0.88;0.70;;;19.50;77.00;;;19.94;62.34;101760.38;5189956;28;20049;-83
2022/07/18 00:28:29;;;;;;;1.90;0.85;;;19.40;77.50;;;19.87;62.95;101763.81;5172106;28;20111;-84
2022/07/18 00:31:01;;;;;;;1.38;0.80;;;19.30;78.00;;;19.82;63.27;101762.84;5172157;28;20049;-84
2022/07/18 00:33:35;;;;;;;1.40;0.80;;;19.30;78.40;;;19.78;63.93;101757.53;5172280;28;20057;-83
2022/07/18 00:36:07;;;;;;;1.63;0.85;;;19.30;79.10;;;19.74;64.19;101761.00;5172312;28;20046;-84
2022/07/18 00:38:39;;;;;;;1.60;0.80;;;19.20;79.40;;;19.70;64.28;101759.22;5171862;28;20042;-84
2022/07/18 00:41:15;;;;;;;0.93;0.82;;;19.20;79.70;;;19.65;64.21;101760.03;5171600;28;20053;-83
2022/07/18 00:43:48;;;;;;;1.25;0.80;;;19.10;79.60;;;19.60;64.75;101759.06;5171791;28;20060;-84
2022/07/18 00:46:23;;;;;;;0.95;0.75;;;19.10;80.20;;;19.55;64.85;101753.66;5188190;28;20045;-84
2022/07/18 00:48:57;;;;;;;0.85;0.80;;;19.00;80.40;;;19.49;64.98;101766.81;5170899;28;20470;-83
2022/07/18 00:51:29;;;;;;;1.98;0.80;;;19.00;80.70;;;19.44;65.29;101765.88;5189093;28;20406;-86
2022/07/18 00:54:03;;;;;;;0.80;0.70;;;18.90;81.00;;;19.38;65.40;101761.41;5171459;28;20532;-84
2022/07/18 00:56:35;;;;;;;0.80;0.80;;;18.90;81.20;;;19.33;65.42;101767.47;5171851;28;20046;-83
2022/07/18 00:59:07;;;;;;;1.40;1.05;;;18.80;81.30;;;19.28;65.72;101767.41;5189207;28;20052;-84
2022/07/18 01:01:47;;;;;;;0.98;0.82;;;18.80;81.80;;;19.25;66.10;101765.63;5171390;28;20057;-85
2022/07/18 01:04:22;;;;;;;1.17;0.85;;;18.70;82.20;;;19.20;66.15;101759.38;5171622;28;20045;-84
2022/07/18 01:06:55;;;;;;;1.10;0.82;;;18.70;82.30;;;19.17;66.13;101764.63;5189146;28;20053;-83
2022/07/18 01:09:27;;;;;;;1.65;0.80;;;18.70;82.40;;;19.15;66.03;101766.34;5171306;28;20053;-84
2022/07/18 01:11:59;;;;;;;1.00;0.75;;;18.60;82.60;;;19.11;66.28;101761.91;5204916;28;20068;-89
2022/07/18 01:14:32;;;;;;;1.23;0.80;;;18.60;82.90;;;19.09;66.48;101760.97;5196088;28;20029;-88
2022/07/18 01:17:12;;;;;;;1.00;0.73;;;18.60;83.10;;;19.05;66.34;101764.44;5196375;28;20045;-89
2022/07/18 01:19:47;;;;;;;0.95;0.73;;;18.60;83.20;;;19.03;66.45;101766.16;5172228;28;20056;-84
2022/07/18 01:22:21;;;;;;;1.13;0.80;;;18.50;83.40;;;18.99;66.64;101753.78;5171659;28;20042;-85
2022/07/18 01:24:53;;;;;;;1.92;0.80;;;18.50;83.60;;;18.97;66.91;101763.41;5189613;28;20056;-85
2022/07/18 01:27:26;;;;;;;1.27;0.80;;;18.50;84.00;;;18.97;66.72;101756.41;5189369;28;20046;-84
2022/07/18 01:29:58;;;;;;;0.85;0.80;;;18.40;84.00;;;18.96;65.97;101745.78;5189429;28;20037;-84
2022/07/18 01:32:30;;;;;;;1.15;0.73;;;18.50;83.40;;;18.94;66.08;101743.13;5171268;28;20049;-84
2022/07/18 01:35:02;;;;;;;1.27;0.73;;;18.50;83.60;;;18.94;66.12;101745.75;5187710;28;20046;-85
2022/07/18 01:37:36;;;;;;;0.80;0.80;;;18.40;83.70;;;18.93;66.37;101748.38;5188772;28;20045;-84
2022/07/18 01:40:10;;;;;;;1.23;0.90;;;18.40;84.00;;;18.89;66.36;101750.09;5171325;28;20053;-86
2022/07/18 01:42:42;;;;;;;;;;;18.40;84.00;;;18.89;66.65;101746.56;5189666;28;20064;-84
2022/07/18 01:45:16;;;;;;;1.88;0.73;;;18.40;84.30;;;18.87;66.71;101750.94;5171303;28;19931;-85
2022/07/18 01:47:48;;;;;;;2.38;1.10;;;18.40;85.20;;;18.84;66.75;101748.22;5188953;28;20050;-84
2022/07/18 01:50:21;;;;;;;1.95;0.88;;;18.40;84.60;;;18.83;66.62;101743.81;5171574;28;20526;-84
2022/07/18 01:52:54;;;;;;;1.10;0.90;;;18.40;84.80;;;18.81;66.95;101750.84;5188832;28;20052;-85
2022/07/18 01:55:26;;;;;;;1.58;0.93;;;18.30;85.00;;;18.81;66.89;101753.47;5171106;28;20149;-83
2022/07/18 01:57:58;;;;;;;1.70;0.80;;;18.30;85.10;;;18.79;67.07;101752.56;5171422;28;20042;-83
2022/07/18 02:00:30;;;;;;;1.02;0.80;;;18.30;85.30;;;18.76;67.22;101747.22;5171177;28;20046;-84
2022/07/18 02:03:03;;;;;;;0.93;0.60;;;18.30;85.50;;;18.74;67.36;101746.31;5171101;28;20053;-84
2022/07/18 02:05:36;;;;;;;2.05;1.00;;;18.30;85.80;;;18.70;67.82;101748.88;5171424;28;20045;-85
2022/07/18 02:08:09;;;;;;;1.23;1.10;;;18.20;86.30;;;18.66;68.16;101751.44;5170656;28;20049;-84
2022/07/18 02:10:42;;;;;;;1.40;0.82;;;18.20;86.70;;;18.60;68.10;101749.59;5188691;28;20096;-86
2022/07/18 02:13:14;;;;;;;1.50;0.82;;;18.10;86.80;;;18.56;68.72;101749.50;5187158;28;20064;-84
2022/07/18 02:15:46;;;;;;;1.33;0.95;;;18.10;87.30;;;18.50;68.78;101750.28;5171059;28;20172;-85
2022/07/18 02:18:18;;;;;;;1.85;0.93;;;18.00;87.40;;;18.45;68.87;101746.66;5170845;28;20045;-84
2022/07/18 02:20:50;;;;;;;1.58;0.90;;;18.00;87.60;;;18.41;69.20;101750.13;5171769;28;20069;-84
2022/07/18 02:23:24;;;;;;;1.42;0.82;;;17.90;88.20;;;18.37;69.68;101746.53;5171297;28;20420;-84
2022/07/18 02:25:56;;;;;;;1.27;0.90;;;17.90;88.80;;;18.33;69.96;101736.78;5171195;28;20058;-84
2022/07/18 02:28:28;;;;;;;1.08;0.90;;;17.90;89.10;;;18.26;70.41;101737.56;5170695;28;20056;-84
2022/07/18 02:31:00;;;;;;;0.95;0.90;;;17.80;89.50;;;18.24;70.51;101730.44;5189908;28;20125;-83
2022/07/18 02:33:33;;;;;;;1.33;0.93;;;17.80;90.00;;;18.18;70.78;101734.75;5171970;28;20046;-85
2022/07/18 02:36:05;;;;;;;1.27;1.00;;;17.80;90.10;;;18.16;71.01;101739.13;5171893;28;20056;-85
2022/07/18 02:38:39;;;;;;;1.10;0.90;;;17.70;90.30;;;18.14;70.85;101739.97;5172029;28;20050;-87
2022/07/18 02:41:11;;;;;;;2.45;1.00;;;17.70;90.70;;;18.09;71.36;101737.22;5172384;28;20045;-84
2022/07/18 02:43:43;;;;;;;1.40;1.17;;;17.60;90.60;;;18.06;71.59;101741.53;5171618;28;20050;-84
2022/07/18 02:46:15;;;;;;;0.85;0.80;;;17.60;90.80;;;18.01;71.68;101732.66;5189738;28;20053;-86
2022/07/18 02:48:47;;;;;;;0.90;0.80;;;17.60;90.90;;;17.96;71.86;101735.22;5171774;28;20053;-86
2022/07/18 02:51:19;;;;;;;1.55;0.88;;;17.60;91.00;;;17.93;72.17;101735.16;5171386;28;20132;-85
2022/07/18 02:53:53;;;;;;;1.63;0.80;;;17.50;91.30;;;17.90;72.36;101740.38;5171503;28;20056;-84
2022/07/18 02:56:25;;;;;;;1.05;0.70;;;17.50;91.40;;;17.89;72.59;101738.59;5171960;28;20088;-84
2022/07/18 02:58:57;;;;;;;1.75;1.20;;;17.40;91.60;;;17.87;72.77;101740.31;5189462;28;20042;-84
2022/07/18 03:01:29;;;;;;;1.73;1.00;;;17.50;91.80;;;17.84;72.82;101732.31;5171704;28;20056;-85
2022/07/18 03:04:02;;;;;;;1.20;1.10;;;17.40;91.90;;;17.82;73.02;101736.69;5172103;28;20050;-85
2022/07/18 03:06:34;;;;;;;1.27;0.90;;;17.40;92.10;;;17.79;73.07;101736.63;5172449;28;20050;-84
2022/07/18 03:09:08;;;;;;;2.00;1.00;;;17.30;92.20;;;17.78;73.36;101742.75;5172806;28;20492;-85
2022/07/18 03:11:40;;;;;;;1.00;0.90;;;17.40;92.30;;;17.75;73.28;101740.06;5174525;28;20046;-85
2022/07/18 03:14:13;;;;;;;0.85;0.73;;;17.30;92.40;;;17.73;73.43;101733.84;5193644;28;20037;-89
2022/07/18 03:16:45;;;;;;;2.00;0.95;;;17.30;92.50;;;17.70;73.36;101736.41;5194040;28;20042;-90
2022/07/18 03:19:17;;;;;;;1.35;0.88;;;17.30;92.50;;;17.67;73.76;101731.97;5192182;28;20136;-84
2022/07/18 03:21:50;;;;;;;1.10;0.98;;;17.30;92.80;;;17.66;73.90;101738.06;5175974;28;20046;-84
2022/07/18 03:24:23;;;;;;;1.42;0.90;;;17.30;92.90;;;17.66;73.19;101734.56;5170532;28;20152;-85
2022/07/18 03:26:55;;;;;;;1.63;1.23;;;17.20;93.00;;;17.67;73.15;101737.25;5187567;28;20065;-85
2022/07/18 03:29:28;;;;;;;1.63;0.98;;;17.20;92.70;;;17.64;73.19;101734.53;5169619;28;20056;-85
2022/07/18 03:32:00;;;;;;;1.27;1.10;;;17.20;92.80;;;17.63;73.27;101738.91;5169712;28;20057;-84
2022/07/18 03:34:33;;;;;;;1.40;1.08;;;17.20;92.90;;;17.62;73.34;101733.63;5170764;28;20049;-85
2022/07/18 03:37:06;;;;;;;1.00;0.90;;;17.10;93.10;;;17.59;73.29;101733.53;5173307;28;20064;-84
2022/07/18 03:39:39;;;;;;;0.80;0.80;;;17.20;92.90;;;17.55;73.03;101732.59;5172927;28;20050;-85
2022/07/18 03:42:11;;;;;;;2.00;0.98;;;17.10;92.90;;;17.52;72.81;101732.50;5173484;28;20046;-85
2022/07/18 03:44:43;;;;;;;2.45;0.95;;;17.10;92.90;;;17.48;73.16;101735.97;5172840;28;20054;-85
2022/07/18 03:47:15;;;;;;;1.40;1.02;;;17.10;93.00;;;17.43;73.74;101734.97;5173288;28;20549;-86
2022/07/18 03:49:47;;;;;;;1.10;0.85;;;17.00;93.20;;;17.45;73.93;101735.88;5189433;28;20048;-85
2022/07/18 03:52:20;;;;;;;1.35;0.95;;;17.00;93.30;;;17.49;73.29;101731.59;5172934;28;20049;-85
2022/07/18 03:54:54;;;;;;;0.73;0.73;;;17.10;93.20;;;17.53;72.18;101731.66;5173071;28;20060;-84
2022/07/18 03:57:26;;;;;;;1.08;0.82;;;17.10;92.80;;;17.58;71.57;101730.00;5190285;28;20052;-85
2022/07/18 03:59:59;;;;;;;1.90;1.08;;;17.10;92.50;;;17.61;71.02;101732.72;5172973;28;20073;-85
2022/07/18 04:02:31;;;;;;;1.30;0.80;;;17.10;92.20;;;17.66;70.50;101727.53;5172757;28;20049;-85
2022/07/18 04:05:03;;;;;;;1.35;1.00;;;17.20;92.00;;;17.69;70.46;101724.09;5173028;28;20057;-85
2022/07/18 04:07:35;;;;;;;1.70;1.08;;;17.20;91.90;;;17.73;70.18;101725.94;5173253;28;20046;-85
2022/07/18 04:10:10;;;;;;;1.00;0.90;;;17.30;91.80;;;17.75;69.58;101726.88;5190429;28;20084;-85
2022/07/18 04:12:47;;;;;;;1.10;0.90;;;17.30;91.50;;;17.77;69.40;101723.41;5172606;28;20042;-85
2022/07/18 04:15:22;;;;;;;0.98;0.77;;;17.30;91.40;;;17.78;69.25;101725.19;5172929;28;20046;-85
2022/07/18 04:17:54;;;;;;;1.70;0.73;;;17.40;91.40;;;17.80;70.00;101722.56;5172856;28;20046;-85
2022/07/18 04:20:26;;;;;;;1.08;0.95;;;17.40;91.60;;;17.80;70.36;101723.47;5172380;28;20058;-86
2022/07/18 04:23:01;;;;;;;1.00;0.90;;;17.40;91.70;;;17.80;70.40;101734.03;5190235;28;20534;-85
2022/07/18 04:25:38;;;;;;;1.92;0.95;;;17.40;91.80;;;17.79;70.48;101736.63;5172304;28;20057;-85
2022/07/18 04:28:13;;;;;;;1.63;0.85;;;17.40;91.80;;;17.79;69.92;101733.97;5190700;28;20056;-86
2022/07/18 04:30:46;;;;;;;1.17;0.73;;;17.40;91.60;;;17.79;69.88;101741.88;5172488;28;20550;-88
2022/07/18 04:33:18;;;;;;;1.23;0.85;;;17.40;91.60;;;17.79;69.96;101747.16;5173908;28;20149;-86
2022/07/18 04:35:51;;;;;;;1.45;0.90;;;17.40;91.70;;;17.79;70.19;101733.97;5190441;28;20038;-85
2022/07/18 04:38:23;;;;;;;1.48;0.80;;;17.40;91.70;;;17.81;69.91;101740.19;5172489;28;20068;-85
2022/07/18 04:40:56;;;;;;;0.95;0.82;;;17.40;91.60;;;17.82;68.89;101728.78;5172678;28;20046;-86
2022/07/18 04:43:28;;;;;;;1.63;0.82;;;17.40;91.30;;;17.87;68.12;101724.50;5172660;28;20049;-86
2022/07/18 04:46:01;;;;;;;1.17;0.82;;;17.40;90.90;;;17.89;67.32;101722.75;5189135;28;20499;-87
2022/07/18 04:48:33;;;;;;;1.15;0.88;;;17.50;90.50;;;17.95;66.57;101720.25;5172486;28;20053;-86
2022/07/18 04:51:05;;;;;;;0.85;0.70;;;17.50;90.20;;;18.00;66.63;101726.50;5172153;28;20054;-86
2022/07/18 04:53:37;;;;;;;1.25;0.82;;;17.50;90.20;;;18.05;66.47;101724.81;5172124;28;20060;-85
2022/07/18 04:56:11;;;;;;;2.85;0.75;;;17.60;90.10;;;18.16;65.94;101720.63;5208599;23;20113;-84
2022/07/18 04:58:43;;;;;;;2.05;1.10;;;17.70;89.70;;;18.37;64.99;101727.16;5213410;28;20055;-84
2022/07/18 05:01:15;;;;;;;2.28;0.90;;;17.90;88.90;;;18.65;64.22;101729.44;5217581;28;20051;-84
2022/07/18 05:03:47;;;;;;;1.75;0.90;;;18.20;88.00;;;19.03;62.95;101729.16;5235112;28;20513;-85
2022/07/18 05:06:19;;;;;;;0.75;0.73;;;18.50;86.90;;;19.40;61.80;101719.09;5226324;28;20053;-84
2022/07/18 05:08:51;;;;;;;1.65;1.17;;;18.80;85.50;;;19.74;60.27;101723.97;5196488;28;20041;-85
2022/07/18 05:11:25;;;;;;;2.88;1.02;;;19.10;84.00;;;20.05;59.04;101730.50;5196017;28;20050;-85
2022/07/18 05:13:57;;;;;;;2.38;1.10;;;19.50;82.30;;;20.31;58.21;101722.81;5212176;28;20100;-85
2022/07/18 05:16:29;;;;;;;3.20;1.10;;;19.70;81.10;;;20.51;57.85;101719.50;5199926;28;20045;-83
2022/07/18 05:19:01;;;;;;;2.80;1.10;;;20.00;80.50;;;20.64;57.39;101723.16;5204100;28;20503;-86
2022/07/18 05:21:33;;;;;;;2.90;1.05;;;20.10;79.60;;;20.67;57.22;101720.50;5192941;28;20113;-84
2022/07/18 05:24:06;;;;;;;1.05;0.93;;;20.20;79.20;;;20.67;57.09;101726.72;5187915;28;20056;-85
2022/07/18 05:26:40;;;;;;;1.42;0.75;;;20.20;78.80;;;20.72;57.45;101719.66;5199370;28;20053;-85
2022/07/18 05:29:13;;;;;;;2.80;0.95;;;20.20;78.90;;;20.78;57.88;101730.31;5180960;28;20045;-84
2022/07/18 05:31:45;;;;;;;2.80;1.20;;;20.30;79.50;;;20.89;57.76;101727.75;5197765;28;20061;-84
2022/07/18 05:34:18;;;;;;;3.13;1.08;;;20.40;79.20;;;21.02;57.81;101728.72;5181449;28;20061;-84
2022/07/18 05:36:50;;;;;;;3.05;1.23;;;20.40;79.30;;;21.15;57.29;101730.59;5194469;28;20053;-85
2022/07/18 05:39:22;;;;;;;1.70;0.80;;;20.50;78.90;;;21.27;56.78;101720.06;5206081;28;20057;-84
2022/07/18 05:41:56;;;;;;;1.42;0.90;;;20.60;78.30;;;21.38;56.50;101728.06;5201384;28;20089;-84
2022/07/18 05:44:28;;;;;;;2.55;1.10;;;20.70;77.80;;;21.48;56.26;101721.94;5203947;28;20037;-84
2022/07/18 05:47:00;;;;;;;1.30;0.93;;;20.80;77.40;;;21.62;55.67;101732.63;5200458;28;20053;-84
2022/07/18 05:49:32;;;;;;;1.58;1.00;;;20.90;77.00;;;21.74;55.25;101723.81;5185317;28;20045;-85
2022/07/18 05:52:05;;;;;;;3.17;1.10;;;21.00;76.40;;;21.86;55.05;101724.75;5183943;28;20030;-85
2022/07/18 05:54:37;;;;;;;1.85;0.80;;;21.20;76.40;;;21.92;54.50;101715.94;5200452;28;20041;-84
2022/07/18 05:57:11;;;;;;;1.38;0.80;;;21.30;75.50;;;22.06;54.39;101721.28;5191114;28;20053;-85
2022/07/18 05:59:43;;;;;;;2.08;0.90;;;21.30;75.20;;;22.17;53.92;101723.09;5202961;28;20044;-81
2022/07/18 06:02:15;;;;;;;1.80;1.00;;;21.40;74.70;;;22.36;53.55;101717.78;5212081;28;20046;-80
2022/07/18 06:04:47;;;;;;;1.85;0.90;;;21.60;74.20;;;22.55;52.68;101718.69;5187314;28;20045;-80
2022/07/18 06:07:19;;;;;;;1.85;0.90;;;21.80;73.60;;;22.66;52.29;101711.59;5212042;28;20052;-80
2022/07/18 06:09:51;;;;;;;3.53;0.95;;;21.90;72.80;;;22.82;52.20;101720.44;5194467;28;20049;-80
2022/07/18 06:12:25;;;;;;;2.72;0.95;;;22.00;72.60;;;22.98;51.83;101720.47;5207512;28;20045;-82
2022/07/18 06:14:57;;;;;;;1.42;1.10;;;22.20;72.20;;;23.16;51.63;101708.03;5215501;28;20049;-80
2022/07/18 06:17:29;;;;;;;2.70;1.20;;;22.30;71.80;;;23.28;51.15;101710.66;5208393;28;20038;-81
2022/07/18 06:20:04;;;;;;;1.85;1.20;;;22.50;71.00;;;23.41;50.91;101704.41;5212971;28;20033;-81
2022/07/18 06:22:37;;;;;;;2.38;1.00;;;22.60;70.70;;;23.62;50.33;101707.91;5210717;28;20418;-81
2022/07/18 06:25:10;;;;;;;2.70;1.00;;;22.80;70.20;;;23.78;49.38;101705.13;5209254;28;20042;-81
2022/07/18 06:27:44;;;;;;;1.73;1.00;;;22.90;69.00;;;23.91;48.37;101705.94;5215079;28;20045;-80
2022/07/18 06:30:16;;;;;;;2.85;1.02;;;23.10;67.90;;;23.91;47.46;101711.28;5232335;28;20053;-81
2022/07/18 06:32:48;;;;;;;3.80;1.13;;;23.10;66.60;;;23.96;47.30;101706.81;5202316;28;20041;-83
2022/07/18 06:35:20;;;;;;;2.80;1.10;;;23.20;66.40;;;24.03;46.87;101699.66;5192352;28;20041;-87
2022/07/18 06:37:52;;;;;;;2.28;0.80;;;23.20;65.40;;;24.07;46.54;101696.97;5199443;28;20072;-84
2022/07/18 06:40:25;;;;;;;1.95;0.80;;;23.30;65.10;;;24.16;46.46;101693.34;5202527;28;20056;-86
2022/07/18 06:42:59;;;;;;;1.73;1.00;;;23.40;64.60;;;24.16;45.76;101700.47;5185713;28;20479;-86
2022/07/18 06:45:31;;;;;;;2.60;1.00;;;23.40;63.90;;;24.20;45.70;101696.91;5186063;28;20483;-87
2022/07/18 06:48:04;;;;;;;2.28;0.95;;;23.50;63.80;;;24.26;46.02;101697.75;5191825;28;20049;-85
2022/07/18 06:50:36;;;;;;;2.58;0.90;;;23.50;64.00;;;24.32;45.96;101696.78;5206922;28;20065;-85
2022/07/18 06:53:09;;;;;;;2.72;0.80;;;23.60;63.90;;;24.38;45.96;101699.44;5199870;28;20041;-85
2022/07/18 06:55:41;;;;;;;2.47;0.85;;;23.60;63.80;;;24.46;46.13;101692.28;5198988;28;20492;-89
2022/07/18 06:58:14;;;;;;;2.08;0.90;;;23.70;63.80;;;24.53;46.13;101691.34;5200472;28;20048;-85
2022/07/18 07:00:46;;;;;;;3.28;0.80;;;23.70;63.70;;;24.63;46.13;101687.66;5197614;28;20041;-87
2022/07/18 07:03:19;;;;;;;2.13;0.70;;;23.80;64.30;;;24.71;46.05;101689.38;5198667;28;20044;-86
2022/07/18 07:05:51;;;;;;;2.88;1.10;;;23.90;63.60;;;24.86;45.63;101691.91;5200502;28;20500;-86
2022/07/18 07:08:23;;;;;;;1.70;0.98;;;24.00;63.40;;;24.98;45.70;101678.47;5214108;28;20050;-86
2022/07/18 07:10:55;;;;;;;2.03;0.90;;;24.10;63.30;;;25.21;45.19;101690.66;5204332;28;20073;-86
2022/07/18 07:13:29;;;;;;;3.08;1.10;;;24.30;63.50;;;25.37;44.61;101689.59;5184860;28;20072;-86
2022/07/18 07:16:01;;;;;;;1.45;0.85;;;24.40;62.50;;;25.55;44.34;101685.78;5219225;28;20049;-87
2022/07/18 07:18:34;;;;;;;1.55;1.00;;;24.60;61.90;;;25.73;44.58;101690.03;5181332;28;20049;-87
2022/07/18 07:21:08;;;;;;;2.67;0.93;;;24.80;62.20;;;25.85;43.47;101689.88;5183086;28;20056;-88
2022/07/18 07:23:40;;;;;;;3.17;1.10;;;24.90;60.80;;;25.95;43.11;101697.75;5174864;28;20046;-91
2022/07/18 07:26:12;;;;;;;1.48;1.00;;;25.00;60.30;;;25.98;43.14;101692.34;5177999;28;20500;-90
2022/07/18 07:28:46;;;;;;;2.03;1.00;;;25.10;60.20;;;26.15;43.65;101684.09;5189297;28;20049;-88
2022/07/18 07:31:18;;;;;;;2.20;1.00;;;25.20;60.70;;;26.35;43.49;101688.22;5204574;28;20041;-88
2022/07/18 07:33:50;;;;;;;3.17;0.93;;;25.40;60.50;;;26.61;42.84;101680.69;5212662;28;20052;-89
2022/07/18 07:36:22;;;;;;;1.23;0.80;;;25.50;60.00;;;26.82;42.07;101681.19;5211414;28;20053;-88
2022/07/18 07:38:55;;;;;;;2.85;1.15;;;25.70;59.40;;;27.02;41.52;101668.31;5195398;28;20503;-88
2022/07/18 07:41:27;;;;;;;2.17;1.02;;;25.80;58.80;;;27.30;41.21;101669.53;5193950;28;20057;-89
2022/07/18 07:44:01;;;;;;;2.75;0.90;;;26.10;58.60;;;27.59;40.62;101676.09;5194307;28;20052;-87
2022/07/18 07:46:33;;;;;;;3.13;1.02;;;26.30;57.80;;;27.80;40.37;101674.75;5212799;28;20095;-89
2022/07/18 07:49:05;;;;;;;2.20;0.88;;;26.50;57.50;;;27.95;40.03;101674.38;5193893;28;20049;-88
2022/07/18 07:51:37;;;;;;;2.55;0.90;;;26.70;57.10;;;28.18;39.85;101679.22;5194640;28;20117;-87
2022/07/18 07:54:09;;;;;;;2.25;0.73;;;26.90;56.90;;;28.38;39.65;101673.38;5213309;28;20068;-88
2022/07/18 07:56:41;;;;;;;2.60;0.90;;;27.10;56.80;;;28.57;39.51;101671.13;5193773;28;20045;-89
2022/07/18 07:59:15;;;;;;;2.67;1.00;;;27.30;56.60;;;28.68;39.12;101663.66;5210454;28;20049;-88
2022/07/18 08:01:47;;;;;;;1.67;0.77;;;27.40;56.10;;;28.81;38.99;101650.78;5194910;28;20060;-88
2022/07/18 08:04:19;;;;;;;1.30;0.70;;;27.50;56.50;;;28.97;38.89;101651.28;5194142;28;20404;-88
2022/07/18 08:06:52;;;;;;;2.17;0.85;;;27.70;55.70;;;29.24;38.93;101655.84;5194174;28;20053;-88
2022/07/18 08:09:24;;;;;;;1.15;0.90;;;27.80;55.80;;;29.57;37.92;101658.50;5194894;28;20041;-87
2022/07/18 08:11:56;;;;;;;2.38;0.82;;;28.10;55.20;;;29.87;37.03;101657.53;5195097;28;20045;-89
2022/07/18 08:14:32;;;;;;;1.35;0.80;;;28.20;54.20;;;30.19;36.58;101655.63;5211973;28;20051;-89
2022/07/18 08:17:04;;;;;;;1.65;0.68;;;28.50;53.90;;;30.63;36.27;101654.09;5194094;28;20049;-91
2022/07/18 08:19:36;;;;;;;4.10;1.20;;;28.70;53.40;;;31.21;35.78;101662.78;5193881;28;20044;-89
2022/07/18 08:22:08;;;;;;;3.25;0.90;;;29.10;53.40;;;31.81;35.15;101658.69;5193294;28;20427;-89
2022/07/18 08:24:41;;;;;;;0.80;0.80;;;29.50;53.00;;;32.42;34.27;101660.72;5193232;28;20042;-88
2022/07/18 08:27:14;;;;;;;2.72;0.85;;;29.80;52.30;;;33.13;33.45;101656.69;5178586;28;20049;-87
2022/07/18 08:29:47;;;;;;;1.25;0.82;;;30.30;51.50;;;33.59;32.55;101665.34;5193624;28;20412;-88
2022/07/18 08:32:20;;;;;;;1.60;0.88;;;30.60;50.80;;;34.17;31.79;101664.31;5192481;28;20060;-89
2022/07/18 08:34:52;;;;;;;3.00;0.88;;;31.00;50.20;;;34.46;31.01;101660.19;5194267;28;20046;-90
2022/07/18 08:37:24;;;;;;;2.28;0.82;;;31.20;49.20;;;35.07;30.89;101654.25;5193666;28;20136;-88
2022/07/18 08:39:56;;;;;;;1.77;0.70;;;31.50;49.10;;;35.91;30.33;101654.13;5192739;28;20053;-89
2022/07/18 08:42:29;;;;;;;2.15;0.95;;;31.90;49.00;;;36.48;29.33;101651.66;5210704;28;20042;-88
2022/07/18 08:45:04;;;;;;;2.10;0.80;;;32.30;48.00;;;37.33;28.74;101654.50;5193828;28;20054;-88
2022/07/18 08:47:37;;;;;;;3.47;0.90;;;33.00;47.40;;;38.25;27.62;101665.66;5192977;28;20517;-88
2022/07/18 08:50:10;;;;;;;2.88;0.70;;;33.80;46.30;;;38.87;27.13;101656.88;5194368;28;20049;-88
2022/07/18 08:52:43;;;;;;;1.98;0.85;;;34.50;45.40;;;39.65;26.98;101653.06;5212343;28;20045;-90
2022/07/18 08:55:15;;;;;;;1.52;0.88;;;35.20;45.00;;;40.31;25.97;101657.19;5191250;28;20049;-89
2022/07/18 08:57:47;;;;;;;1.42;0.70;;;35.90;43.80;;;40.78;25.35;101658.94;5191294;28;20060;-88
2022/07/18 09:00:21;;;;;;;1.67;0.75;;;36.50;42.80;;;41.19;24.59;101650.16;5192912;28;20045;-90
2022/07/18 09:03:01;;;;;;;1.60;0.80;;;36.90;42.00;;;41.67;24.23;101655.38;5192542;28;20045;-90
2022/07/18 09:05:34;;;;;;;1.65;0.60;;;37.40;41.90;;;41.64;24.43;101652.00;5193664;28;20534;-88
2022/07/18 09:08:12;;;;;;;1.02;0.70;;;37.50;41.20;;;41.89;23.92;101650.84;5209905;28;20408;-90
2022/07/18 09:10:50;;;;;;;1.42;0.82;;;37.70;40.90;;;42.35;24.52;101646.94;5211081;28;20419;-89
2022/07/18 09:13:25;;;;;;;1.75;0.80;;;38.00;41.90;;;42.78;24.16;101650.47;5194284;28;20144;-88
2022/07/18 09:16:04;;;;;;;1.30;0.80;;;38.40;41.00;;;42.78;23.59;101644.97;5211765;28;20053;-87
2022/07/18 09:18:38;;;;;;;1.90;0.88;;;38.40;39.90;;;42.39;23.49;101645.69;5194610;28;20060;-89
2022/07/18 09:21:15;;;;;;;2.00;0.70;;;38.20;39.70;;;42.53;23.56;101631.66;5193830;28;20118;-88
2022/07/18 09:23:50;;;;;;;1.83;0.90;;;38.30;39.60;;;41.96;22.74;101635.66;5194686;28;20410;-90
2022/07/18 09:26:40;;;;;;;2.05;0.70;;;38.10;38.90;;;40.92;23.64;101616.88;5215850;28;20076;-88
2022/07/18 09:29:17;;;;;;;1.60;0.93;;;37.60;39.20;;;39.91;24.25;101619.25;5201203;28;20048;-88
2022/07/18 09:31:52;;;;;;;1.05;0.65;;;37.00;39.70;;;39.28;24.65;101618.47;5210036;28;20045;-88
2022/07/18 09:34:35;;;;;;;1.70;0.70;;;36.70;39.60;;;38.57;24.61;101620.84;5212017;28;20182;-88
2022/07/18 09:37:12;;;;;;;1.88;0.80;;;36.30;39.50;;;38.04;24.90;101618.09;5193218;28;20041;-87
2022/07/18 09:39:44;;;;;;;1.75;0.80;;;36.00;39.50;;;37.20;25.01;101612.75;5207174;28;20055;-89
2022/07/18 09:42:19;;;;;;;2.53;0.98;;;35.50;39.10;;;36.66;25.74;101604.38;5211667;28;20047;-89
2022/07/18 09:44:59;;;;;;;1.80;0.90;;;35.20;39.90;;;36.35;26.47;101611.66;5214636;28;20045;-89
2022/07/18 09:47:32;;;;;;;0.73;0.50;;;34.90;40.50;;;36.02;26.32;101611.84;5213853;28;20680;-88
2022/07/18 09:50:05;;;;;;;;;;;34.60;40.10;;;35.58;25.33;101608.97;5213869;28;20053;-89
2022/07/18 09:52:37;;;;;;;2.53;0.63;;;34.30;39.00;;;35.47;24.90;101605.97;5223853;28;20587;-88
2022/07/18 09:55:10;;;;;;;1.42;0.60;;;34.20;38.50;;;35.37;24.34;101599.31;5209703;28;20053;-88
2022/07/18 09:57:42;;;;;;;0.70;0.70;;;34.00;38.20;;;35.41;25.38;101606.28;5194748;28;20077;-88
2022/07/18 10:00:15;;;;;;;0.82;0.60;;;34.00;39.20;;;35.26;24.46;101600.78;5214360;28;20041;-89
2022/07/18 10:02:49;;;;;;;1.42;0.70;;;33.90;38.40;;;35.27;24.66;101610.66;5196254;28;20116;-87
2022/07/18 10:05:21;;;;;;;2.38;0.73;;;33.90;38.50;;;35.21;25.13;101605.63;5215499;28;20108;-91
2022/07/18 10:07:54;;;;;;;1.05;0.70;;;33.80;38.80;;;35.22;25.33;101607.34;5197347;28;20049;-85
2022/07/18 10:10:28;;;;;;;2.25;0.70;;;33.80;38.90;;;35.17;24.90;101604.03;5212554;28;20045;-85
2022/07/18 10:13:02;;;;;;;1.23;0.85;;;33.80;38.80;;;35.05;25.57;101610.97;5216079;28;20041;-85
2022/07/18 10:15:37;;;;;;;2.97;0.80;;;33.70;39.30;;;34.92;25.62;101604.50;5213758;28;20056;-85
2022/07/18 10:18:13;;;;;;;1.80;0.85;;;33.60;39.30;;;34.84;25.33;101600.44;5198719;28;20132;-85
2022/07/18 10:20:48;;;;;;;1.50;1.00;;;33.50;39.00;;;34.97;25.66;101596.13;5200530;28;20045;-84
2022/07/18 10:23:23;;;;;;;1.25;0.60;;;33.60;39.40;;;35.11;27.12;101593.53;5217359;28;20041;-84
2022/07/18 10:26:13;;;;;;;1.50;0.60;;;33.70;41.30;;;35.20;25.93;101595.69;5198310;28;20037;-87
2022/07/18 10:29:11;;;;;;;1.45;0.70;;;33.70;39.60;;;35.28;25.49;101590.75;5213384;28;20051;-84
2022/07/18 10:32:03;;;;;;;1.88;0.80;;;33.80;39.50;;;35.27;25.45;101591.69;5183094;28;20049;-84
2022/07/18 10:34:39;;;;;;;;;;;33.90;39.00;;;35.16;25.29;101580.59;5199366;28;20045;-84
2022/07/18 10:37:13;;;;;;;5.20;0.90;;;33.80;39.10;;;35.17;25.46;101576.94;5195064;28;19920;-84